sensor_id;sensor_type;location;lat;lon;timestamp;temperature;humidity
61398;DHT22;47267;48.130;-2.040;2023-06-22T00:01:58;25.70;56.40
61398;DHT22;47267;48.130;-2.040;2023-06-22T00:04:24;25.70;56.40
61398;DHT22;47267;48.130;-2.040;2023-06-22T00:06:50;25.60;56.30
61398;DHT22;47267;48.130;-2.040;2023-06-22T00:09:16;25.70;56.40
61398;DHT22;47267;48.130;-2.040;2023-06-22T00:11:42;25.60;56.30
61398;DHT22;47267;48.130;-2.040;2023-06-22T00:14:07;25.70;56.40
61398;DHT22;47267;48.130;-2.040;2023-06-22T00:16:33;25.60;56.30
61398;DHT22;47267;48.130;-2.040;2023-06-22T00:18:59;25.60;56.30
61398;DHT22;47267;48.130;-2.040;2023-06-22T00:21:27;25.60;56.30
61398;DHT22;47267;48.130;-2.040;2023-06-22T00:23:52;25.60;56.30
61398;DHT22;47267;48.130;-2.040;2023-06-22T00:26:18;25.60;56.30
61398;DHT22;47267;48.130;-2.040;2023-06-22T00:28:44;25.60;56.30
61398;DHT22;47267;48.130;-2.040;2023-06-22T00:31:10;25.60;56.30
61398;DHT22;47267;48.130;-2.040;2023-06-22T00:33:36;25.60;56.30
61398;DHT22;47267;48.130;-2.040;2023-06-22T00:36:01;25.60;56.30
61398;DHT22;47267;48.130;-2.040;2023-06-22T00:38:28;25.60;56.30
61398;DHT22;47267;48.130;-2.040;2023-06-22T00:40:54;25.60;56.30
61398;DHT22;47267;48.130;-2.040;2023-06-22T00:43:20;25.60;56.30
61398;DHT22;47267;48.130;-2.040;2023-06-22T00:45:46;25.60;56.30
61398;DHT22;47267;48.130;-2.040;2023-06-22T00:48:13;25.60;56.30
61398;DHT22;47267;48.130;-2.040;2023-06-22T00:50:40;25.60;56.30
61398;DHT22;47267;48.130;-2.040;2023-06-22T00:53:07;25.60;56.30
61398;DHT22;47267;48.130;-2.040;2023-06-22T00:55:44;25.50;56.20
61398;DHT22;47267;48.130;-2.040;2023-06-22T00:58:12;25.60;56.20
61398;DHT22;47267;48.130;-2.040;2023-06-22T01:00:40;25.60;56.20
61398;DHT22;47267;48.130;-2.040;2023-06-22T01:03:06;25.60;56.20
61398;DHT22;47267;48.130;-2.040;2023-06-22T01:05:36;25.60;56.20
61398;DHT22;47267;48.130;-2.040;2023-06-22T01:08:27;25.50;56.10
61398;DHT22;47267;48.130;-2.040;2023-06-22T01:14:20;25.50;56.20
61398;DHT22;47267;48.130;-2.040;2023-06-22T01:16:48;25.50;56.10
61398;DHT22;47267;48.130;-2.040;2023-06-22T01:22:05;25.50;56.10
61398;DHT22;47267;48.130;-2.040;2023-06-22T01:24:57;25.50;56.10
61398;DHT22;47267;48.130;-2.040;2023-06-22T01:28:04;25.50;56.10
61398;DHT22;47267;48.130;-2.040;2023-06-22T01:30:30;25.50;56.10
61398;DHT22;47267;48.130;-2.040;2023-06-22T01:33:00;25.50;56.10
61398;DHT22;47267;48.130;-2.040;2023-06-22T01:35:28;25.50;56.10
61398;DHT22;47267;48.130;-2.040;2023-06-22T01:37:55;25.50;56.10
61398;DHT22;47267;48.130;-2.040;2023-06-22T01:40:22;25.50;56.10
61398;DHT22;47267;48.130;-2.040;2023-06-22T01:42:48;25.50;56.10
61398;DHT22;47267;48.130;-2.040;2023-06-22T01:45:15;25.50;56.20
61398;DHT22;47267;48.130;-2.040;2023-06-22T01:47:42;25.50;56.20
61398;DHT22;47267;48.130;-2.040;2023-06-22T01:50:08;25.50;56.20
61398;DHT22;47267;48.130;-2.040;2023-06-22T01:52:34;25.50;56.20
61398;DHT22;47267;48.130;-2.040;2023-06-22T01:55:00;25.50;56.10
61398;DHT22;47267;48.130;-2.040;2023-06-22T01:57:27;25.50;56.10
61398;DHT22;47267;48.130;-2.040;2023-06-22T02:02:56;25.50;56.10
61398;DHT22;47267;48.130;-2.040;2023-06-22T02:05:23;25.50;56.10
61398;DHT22;47267;48.130;-2.040;2023-06-22T02:08:09;25.40;56.10
61398;DHT22;47267;48.130;-2.040;2023-06-22T02:10:38;25.40;56.10
61398;DHT22;47267;48.130;-2.040;2023-06-22T02:13:07;25.40;56.10
61398;DHT22;47267;48.130;-2.040;2023-06-22T02:15:33;25.40;56.10
61398;DHT22;47267;48.130;-2.040;2023-06-22T02:18:00;25.40;56.10
61398;DHT22;47267;48.130;-2.040;2023-06-22T02:20:25;25.40;56.10
61398;DHT22;47267;48.130;-2.040;2023-06-22T02:22:51;25.40;56.10
61398;DHT22;47267;48.130;-2.040;2023-06-22T02:25:17;25.40;56.10
61398;DHT22;47267;48.130;-2.040;2023-06-22T02:27:42;25.40;56.10
61398;DHT22;47267;48.130;-2.040;2023-06-22T02:30:09;25.40;56.10
61398;DHT22;47267;48.130;-2.040;2023-06-22T02:32:35;25.40;56.10
61398;DHT22;47267;48.130;-2.040;2023-06-22T02:35:01;25.40;56.10
61398;DHT22;47267;48.130;-2.040;2023-06-22T02:37:31;25.40;56.10
61398;DHT22;47267;48.130;-2.040;2023-06-22T02:39:57;25.40;56.10
61398;DHT22;47267;48.130;-2.040;2023-06-22T02:42:22;25.40;56.10
61398;DHT22;47267;48.130;-2.040;2023-06-22T02:44:48;25.40;56.10
61398;DHT22;47267;48.130;-2.040;2023-06-22T02:47:14;25.30;56.00
61398;DHT22;47267;48.130;-2.040;2023-06-22T02:49:40;25.30;56.00
61398;DHT22;47267;48.130;-2.040;2023-06-22T02:52:05;25.30;56.00
61398;DHT22;47267;48.130;-2.040;2023-06-22T02:54:31;25.30;56.00
61398;DHT22;47267;48.130;-2.040;2023-06-22T02:56:58;25.30;56.00
61398;DHT22;47267;48.130;-2.040;2023-06-22T02:59:24;25.30;56.00
61398;DHT22;47267;48.130;-2.040;2023-06-22T03:01:50;25.30;56.00
61398;DHT22;47267;48.130;-2.040;2023-06-22T03:04:16;25.30;56.60
61398;DHT22;47267;48.130;-2.040;2023-06-22T03:06:41;25.30;56.00
61398;DHT22;47267;48.130;-2.040;2023-06-22T03:09:07;25.30;56.00
61398;DHT22;47267;48.130;-2.040;2023-06-22T03:11:34;25.30;56.00
61398;DHT22;47267;48.130;-2.040;2023-06-22T03:14:02;25.30;56.00
61398;DHT22;47267;48.130;-2.040;2023-06-22T03:16:28;25.30;56.00
61398;DHT22;47267;48.130;-2.040;2023-06-22T03:18:54;25.30;56.00
61398;DHT22;47267;48.130;-2.040;2023-06-22T03:21:22;25.30;56.00
61398;DHT22;47267;48.130;-2.040;2023-06-22T03:23:48;25.30;56.00
61398;DHT22;47267;48.130;-2.040;2023-06-22T03:26:17;25.20;56.00
61398;DHT22;47267;48.130;-2.040;2023-06-22T03:28:43;25.20;56.00
61398;DHT22;47267;48.130;-2.040;2023-06-22T03:31:08;25.20;56.00
61398;DHT22;47267;48.130;-2.040;2023-06-22T03:33:34;25.20;56.00
61398;DHT22;47267;48.130;-2.040;2023-06-22T03:36:00;25.20;56.00
61398;DHT22;47267;48.130;-2.040;2023-06-22T03:38:26;25.20;56.00
61398;DHT22;47267;48.130;-2.040;2023-06-22T03:40:51;25.20;55.90
61398;DHT22;47267;48.130;-2.040;2023-06-22T03:43:17;25.20;56.00
61398;DHT22;47267;48.130;-2.040;2023-06-22T03:45:43;25.20;56.00
61398;DHT22;47267;48.130;-2.040;2023-06-22T03:48:11;25.20;56.00
61398;DHT22;47267;48.130;-2.040;2023-06-22T03:50:37;25.20;56.00
61398;DHT22;47267;48.130;-2.040;2023-06-22T03:53:02;25.20;56.00
61398;DHT22;47267;48.130;-2.040;2023-06-22T03:55:28;25.20;56.00
61398;DHT22;47267;48.130;-2.040;2023-06-22T03:57:54;25.20;56.00
61398;DHT22;47267;48.130;-2.040;2023-06-22T04:00:23;25.20;56.00
61398;DHT22;47267;48.130;-2.040;2023-06-22T04:02:48;25.20;56.00
61398;DHT22;47267;48.130;-2.040;2023-06-22T04:05:14;25.10;55.90
61398;DHT22;47267;48.130;-2.040;2023-06-22T04:07:40;25.10;56.00
61398;DHT22;47267;48.130;-2.040;2023-06-22T04:10:06;25.10;55.90
61398;DHT22;47267;48.130;-2.040;2023-06-22T04:12:32;25.10;55.90
61398;DHT22;47267;48.130;-2.040;2023-06-22T04:14:57;25.10;55.90
61398;DHT22;47267;48.130;-2.040;2023-06-22T04:17:23;25.10;55.90
61398;DHT22;47267;48.130;-2.040;2023-06-22T04:19:51;25.10;55.90
61398;DHT22;47267;48.130;-2.040;2023-06-22T04:22:16;25.10;56.00
61398;DHT22;47267;48.130;-2.040;2023-06-22T04:24:42;25.10;56.00
61398;DHT22;47267;48.130;-2.040;2023-06-22T04:27:08;25.10;55.90
61398;DHT22;47267;48.130;-2.040;2023-06-22T04:29:33;25.10;55.90
61398;DHT22;47267;48.130;-2.040;2023-06-22T04:31:59;25.10;56.00
61398;DHT22;47267;48.130;-2.040;2023-06-22T04:34:29;25.10;55.90
61398;DHT22;47267;48.130;-2.040;2023-06-22T04:36:55;25.00;55.90
61398;DHT22;47267;48.130;-2.040;2023-06-22T04:39:21;25.00;55.90
61398;DHT22;47267;48.130;-2.040;2023-06-22T04:41:47;25.10;56.00
61398;DHT22;47267;48.130;-2.040;2023-06-22T04:44:17;25.10;56.00
61398;DHT22;47267;48.130;-2.040;2023-06-22T04:47:07;25.00;55.90
61398;DHT22;47267;48.130;-2.040;2023-06-22T04:49:35;25.00;55.90
61398;DHT22;47267;48.130;-2.040;2023-06-22T04:52:10;25.00;55.90
61398;DHT22;47267;48.130;-2.040;2023-06-22T04:54:37;25.00;55.90
61398;DHT22;47267;48.130;-2.040;2023-06-22T04:57:04;25.00;55.90
61398;DHT22;47267;48.130;-2.040;2023-06-22T04:59:31;25.00;55.90
61398;DHT22;47267;48.130;-2.040;2023-06-22T05:01:57;25.00;55.90
61398;DHT22;47267;48.130;-2.040;2023-06-22T05:04:25;25.00;55.90
61398;DHT22;47267;48.130;-2.040;2023-06-22T05:06:51;25.00;55.90
61398;DHT22;47267;48.130;-2.040;2023-06-22T05:09:17;25.00;56.00
61398;DHT22;47267;48.130;-2.040;2023-06-22T05:11:44;25.00;55.90
61398;DHT22;47267;48.130;-2.040;2023-06-22T05:14:10;25.00;55.90
61398;DHT22;47267;48.130;-2.040;2023-06-22T05:16:37;25.00;55.90
61398;DHT22;47267;48.130;-2.040;2023-06-22T05:19:03;25.00;55.90
61398;DHT22;47267;48.130;-2.040;2023-06-22T05:21:29;24.90;55.90
61398;DHT22;47267;48.130;-2.040;2023-06-22T05:23:55;25.00;55.90
61398;DHT22;47267;48.130;-2.040;2023-06-22T05:26:25;24.90;55.90
61398;DHT22;47267;48.130;-2.040;2023-06-22T05:28:51;25.00;56.00
61398;DHT22;47267;48.130;-2.040;2023-06-22T05:31:17;24.90;55.90
61398;DHT22;47267;48.130;-2.040;2023-06-22T05:33:45;24.90;55.90
61398;DHT22;47267;48.130;-2.040;2023-06-22T05:36:11;24.90;55.90
61398;DHT22;47267;48.130;-2.040;2023-06-22T05:38:38;24.90;55.90
61398;DHT22;47267;48.130;-2.040;2023-06-22T05:41:04;24.90;55.90
61398;DHT22;47267;48.130;-2.040;2023-06-22T05:43:30;24.90;55.90
61398;DHT22;47267;48.130;-2.040;2023-06-22T05:45:56;24.90;55.90
61398;DHT22;47267;48.130;-2.040;2023-06-22T05:48:21;24.90;56.00
61398;DHT22;47267;48.130;-2.040;2023-06-22T05:50:47;24.90;55.90
61398;DHT22;47267;48.130;-2.040;2023-06-22T05:53:13;24.90;55.90
61398;DHT22;47267;48.130;-2.040;2023-06-22T05:55:39;24.90;55.90
61398;DHT22;47267;48.130;-2.040;2023-06-22T05:58:04;24.80;55.90
61398;DHT22;47267;48.130;-2.040;2023-06-22T06:00:30;24.80;55.90
61398;DHT22;47267;48.130;-2.040;2023-06-22T06:02:56;24.90;55.90
61398;DHT22;47267;48.130;-2.040;2023-06-22T06:05:22;24.80;55.90
61398;DHT22;47267;48.130;-2.040;2023-06-22T06:07:49;24.80;55.90
61398;DHT22;47267;48.130;-2.040;2023-06-22T06:10:15;24.90;56.50
61398;DHT22;47267;48.130;-2.040;2023-06-22T06:12:40;24.90;55.90
61398;DHT22;47267;48.130;-2.040;2023-06-22T06:15:06;24.80;55.90
61398;DHT22;47267;48.130;-2.040;2023-06-22T06:17:32;24.80;55.90
61398;DHT22;47267;48.130;-2.040;2023-06-22T06:19:59;24.80;55.90
61398;DHT22;47267;48.130;-2.040;2023-06-22T06:22:25;24.80;55.90
61398;DHT22;47267;48.130;-2.040;2023-06-22T06:24:50;24.80;55.90
61398;DHT22;47267;48.130;-2.040;2023-06-22T06:27:16;24.80;55.90
61398;DHT22;47267;48.130;-2.040;2023-06-22T06:29:45;24.80;55.90
61398;DHT22;47267;48.130;-2.040;2023-06-22T06:32:14;24.80;55.90
61398;DHT22;47267;48.130;-2.040;2023-06-22T06:34:40;24.80;55.90
61398;DHT22;47267;48.130;-2.040;2023-06-22T06:37:06;24.80;56.50
61398;DHT22;47267;48.130;-2.040;2023-06-22T06:39:31;24.80;55.90
61398;DHT22;47267;48.130;-2.040;2023-06-22T06:41:57;24.80;55.90
61398;DHT22;47267;48.130;-2.040;2023-06-22T06:44:23;24.80;55.90
61398;DHT22;47267;48.130;-2.040;2023-06-22T06:46:48;24.80;55.90
61398;DHT22;47267;48.130;-2.040;2023-06-22T06:49:14;24.80;56.50
61398;DHT22;47267;48.130;-2.040;2023-06-22T06:51:40;24.70;56.50
61398;DHT22;47267;48.130;-2.040;2023-06-22T06:54:05;24.80;55.90
61398;DHT22;47267;48.130;-2.040;2023-06-22T06:56:31;24.70;55.90
61398;DHT22;47267;48.130;-2.040;2023-06-22T06:58:58;24.70;56.50
61398;DHT22;47267;48.130;-2.040;2023-06-22T07:01:24;24.70;55.90
61398;DHT22;47267;48.130;-2.040;2023-06-22T07:03:49;24.70;55.90
61398;DHT22;47267;48.130;-2.040;2023-06-22T07:06:15;24.70;55.90
61398;DHT22;47267;48.130;-2.040;2023-06-22T07:08:42;24.70;55.90
61398;DHT22;47267;48.130;-2.040;2023-06-22T07:11:08;24.70;55.90
61398;DHT22;47267;48.130;-2.040;2023-06-22T07:13:34;24.70;55.90
61398;DHT22;47267;48.130;-2.040;2023-06-22T07:15:59;24.70;55.90
61398;DHT22;47267;48.130;-2.040;2023-06-22T07:18:25;24.70;55.90
61398;DHT22;47267;48.130;-2.040;2023-06-22T07:20:52;24.70;55.90
61398;DHT22;47267;48.130;-2.040;2023-06-22T07:23:17;24.70;55.90
61398;DHT22;47267;48.130;-2.040;2023-06-22T07:25:43;24.70;55.90
61398;DHT22;47267;48.130;-2.040;2023-06-22T07:28:09;24.70;55.90
61398;DHT22;47267;48.130;-2.040;2023-06-22T07:30:34;24.70;55.90
61398;DHT22;47267;48.130;-2.040;2023-06-22T07:33:01;24.70;55.90
61398;DHT22;47267;48.130;-2.040;2023-06-22T07:35:30;24.70;55.90
61398;DHT22;47267;48.130;-2.040;2023-06-22T07:37:56;24.70;55.90
61398;DHT22;47267;48.130;-2.040;2023-06-22T07:40:22;24.70;55.90
61398;DHT22;47267;48.130;-2.040;2023-06-22T07:42:47;24.70;56.00
61398;DHT22;47267;48.130;-2.040;2023-06-22T07:45:17;24.60;56.00
61398;DHT22;47267;48.130;-2.040;2023-06-22T07:47:43;24.70;56.00
61398;DHT22;47267;48.130;-2.040;2023-06-22T07:50:09;24.70;56.00
61398;DHT22;47267;48.130;-2.040;2023-06-22T07:52:35;24.60;55.90
61398;DHT22;47267;48.130;-2.040;2023-06-22T07:55:02;24.60;55.90
61398;DHT22;47267;48.130;-2.040;2023-06-22T07:57:28;24.60;55.90
61398;DHT22;47267;48.130;-2.040;2023-06-22T08:00:06;24.60;56.00
61398;DHT22;47267;48.130;-2.040;2023-06-22T08:02:44;24.60;56.00
61398;DHT22;47267;48.130;-2.040;2023-06-22T08:05:10;24.60;56.00
61398;DHT22;47267;48.130;-2.040;2023-06-22T08:07:37;24.60;56.00
61398;DHT22;47267;48.130;-2.040;2023-06-22T08:10:05;24.60;56.10
61398;DHT22;47267;48.130;-2.040;2023-06-22T08:12:31;24.50;56.00
61398;DHT22;47267;48.130;-2.040;2023-06-22T08:14:56;24.50;56.10
61398;DHT22;47267;48.130;-2.040;2023-06-22T08:17:24;24.50;56.20
61398;DHT22;47267;48.130;-2.040;2023-06-22T08:19:50;24.50;56.10
61398;DHT22;47267;48.130;-2.040;2023-06-22T08:22:16;24.40;56.10
61398;DHT22;47267;48.130;-2.040;2023-06-22T08:24:42;24.50;56.20
61398;DHT22;47267;48.130;-2.040;2023-06-22T08:27:10;24.50;56.20
61398;DHT22;47267;48.130;-2.040;2023-06-22T08:29:39;24.40;56.10
61398;DHT22;47267;48.130;-2.040;2023-06-22T08:32:05;24.40;56.20
61398;DHT22;47267;48.130;-2.040;2023-06-22T08:34:30;24.40;56.40
61398;DHT22;47267;48.130;-2.040;2023-06-22T08:36:56;24.40;56.20
61398;DHT22;47267;48.130;-2.040;2023-06-22T08:39:22;24.40;56.30
61398;DHT22;47267;48.130;-2.040;2023-06-22T08:41:48;24.30;56.20
61398;DHT22;47267;48.130;-2.040;2023-06-22T08:44:14;24.30;56.20
61398;DHT22;47267;48.130;-2.040;2023-06-22T08:46:39;24.30;56.60
61398;DHT22;47267;48.130;-2.040;2023-06-22T08:49:06;24.30;56.50
61398;DHT22;47267;48.130;-2.040;2023-06-22T08:51:32;24.30;56.40
61398;DHT22;47267;48.130;-2.040;2023-06-22T08:53:58;24.30;56.50
61398;DHT22;47267;48.130;-2.040;2023-06-22T08:56:23;24.20;56.40
61398;DHT22;47267;48.130;-2.040;2023-06-22T08:58:49;24.30;56.40
61398;DHT22;47267;48.130;-2.040;2023-06-22T09:01:15;24.20;56.40
61398;DHT22;47267;48.130;-2.040;2023-06-22T09:03:41;24.20;56.40
61398;DHT22;47267;48.130;-2.040;2023-06-22T09:06:07;24.20;56.40
61398;DHT22;47267;48.130;-2.040;2023-06-22T09:08:35;24.20;56.40
61398;DHT22;47267;48.130;-2.040;2023-06-22T09:11:00;24.20;56.40
61398;DHT22;47267;48.130;-2.040;2023-06-22T09:13:27;24.20;56.50
61398;DHT22;47267;48.130;-2.040;2023-06-22T09:15:53;24.20;56.50
61398;DHT22;47267;48.130;-2.040;2023-06-22T09:18:19;24.20;56.50
61398;DHT22;47267;48.130;-2.040;2023-06-22T09:20:45;24.20;56.50
61398;DHT22;47267;48.130;-2.040;2023-06-22T09:23:11;24.20;56.50
61398;DHT22;47267;48.130;-2.040;2023-06-22T09:25:36;24.10;56.40
61398;DHT22;47267;48.130;-2.040;2023-06-22T09:28:02;24.20;56.50
61398;DHT22;47267;48.130;-2.040;2023-06-22T09:30:28;24.20;56.80
61398;DHT22;47267;48.130;-2.040;2023-06-22T09:32:53;24.10;57.00
61398;DHT22;47267;48.130;-2.040;2023-06-22T09:35:19;24.20;56.90
61398;DHT22;47267;48.130;-2.040;2023-06-22T09:37:45;24.10;56.80
61398;DHT22;47267;48.130;-2.040;2023-06-22T09:40:11;24.10;56.70
61398;DHT22;47267;48.130;-2.040;2023-06-22T09:42:38;24.10;56.70
61398;DHT22;47267;48.130;-2.040;2023-06-22T09:45:05;24.10;57.30
61398;DHT22;47267;48.130;-2.040;2023-06-22T09:47:30;24.10;56.70
61398;DHT22;47267;48.130;-2.040;2023-06-22T09:49:56;24.10;56.80
61398;DHT22;47267;48.130;-2.040;2023-06-22T09:52:24;24.10;56.70
61398;DHT22;47267;48.130;-2.040;2023-06-22T09:54:50;24.10;56.80
61398;DHT22;47267;48.130;-2.040;2023-06-22T09:57:16;24.10;56.80
61398;DHT22;47267;48.130;-2.040;2023-06-22T09:59:42;24.10;56.80
61398;DHT22;47267;48.130;-2.040;2023-06-22T10:02:08;24.10;56.80
61398;DHT22;47267;48.130;-2.040;2023-06-22T10:04:34;24.10;56.80
61398;DHT22;47267;48.130;-2.040;2023-06-22T10:07:01;24.10;56.80
61398;DHT22;47267;48.130;-2.040;2023-06-22T10:09:27;24.00;56.70
61398;DHT22;47267;48.130;-2.040;2023-06-22T10:11:53;24.10;56.80
61398;DHT22;47267;48.130;-2.040;2023-06-22T10:14:19;24.10;56.80
61398;DHT22;47267;48.130;-2.040;2023-06-22T10:16:44;24.10;56.80
61398;DHT22;47267;48.130;-2.040;2023-06-22T10:19:10;24.00;56.80
61398;DHT22;47267;48.130;-2.040;2023-06-22T10:21:36;24.10;56.80
61398;DHT22;47267;48.130;-2.040;2023-06-22T10:24:02;24.00;56.80
61398;DHT22;47267;48.130;-2.040;2023-06-22T10:26:35;24.10;56.80
61398;DHT22;47267;48.130;-2.040;2023-06-22T10:29:01;24.00;56.80
61398;DHT22;47267;48.130;-2.040;2023-06-22T10:31:27;24.10;56.90
61398;DHT22;47267;48.130;-2.040;2023-06-22T10:33:54;24.00;56.80
61398;DHT22;47267;48.130;-2.040;2023-06-22T10:36:20;24.00;56.80
61398;DHT22;47267;48.130;-2.040;2023-06-22T10:38:46;24.00;56.80
61398;DHT22;47267;48.130;-2.040;2023-06-22T10:41:12;24.00;56.80
61398;DHT22;47267;48.130;-2.040;2023-06-22T10:43:38;24.00;56.80
61398;DHT22;47267;48.130;-2.040;2023-06-22T10:46:04;24.00;56.80
61398;DHT22;47267;48.130;-2.040;2023-06-22T10:48:29;24.00;56.80
61398;DHT22;47267;48.130;-2.040;2023-06-22T10:50:55;24.00;56.80
61398;DHT22;47267;48.130;-2.040;2023-06-22T10:53:21;24.00;56.90
61398;DHT22;47267;48.130;-2.040;2023-06-22T10:55:47;24.00;56.80
61398;DHT22;47267;48.130;-2.040;2023-06-22T10:58:13;24.00;56.90
61398;DHT22;47267;48.130;-2.040;2023-06-22T11:00:39;24.00;56.90
61398;DHT22;47267;48.130;-2.040;2023-06-22T11:03:04;24.00;56.90
61398;DHT22;47267;48.130;-2.040;2023-06-22T11:05:32;24.00;56.90
61398;DHT22;47267;48.130;-2.040;2023-06-22T11:07:58;24.00;56.90
61398;DHT22;47267;48.130;-2.040;2023-06-22T11:10:23;24.00;56.90
61398;DHT22;47267;48.130;-2.040;2023-06-22T11:12:49;24.00;56.90
61398;DHT22;47267;48.130;-2.040;2023-06-22T11:15:15;24.00;56.90
61398;DHT22;47267;48.130;-2.040;2023-06-22T11:17:40;24.00;56.90
61398;DHT22;47267;48.130;-2.040;2023-06-22T11:20:07;24.00;56.90
61398;DHT22;47267;48.130;-2.040;2023-06-22T11:22:39;24.00;56.90
61398;DHT22;47267;48.130;-2.040;2023-06-22T11:25:05;24.00;56.90
61398;DHT22;47267;48.130;-2.040;2023-06-22T11:27:32;24.00;56.90
61398;DHT22;47267;48.130;-2.040;2023-06-22T11:29:57;24.00;56.90
61398;DHT22;47267;48.130;-2.040;2023-06-22T11:32:23;24.00;56.90
61398;DHT22;47267;48.130;-2.040;2023-06-22T11:34:50;24.00;56.90
61398;DHT22;47267;48.130;-2.040;2023-06-22T11:37:16;24.00;56.90
61398;DHT22;47267;48.130;-2.040;2023-06-22T11:39:42;24.00;56.90
61398;DHT22;47267;48.130;-2.040;2023-06-22T11:42:09;24.00;56.90
61398;DHT22;47267;48.130;-2.040;2023-06-22T11:44:34;24.00;57.00
61398;DHT22;47267;48.130;-2.040;2023-06-22T11:47:00;24.00;57.00
61398;DHT22;47267;48.130;-2.040;2023-06-22T11:49:27;24.00;57.00
61398;DHT22;47267;48.130;-2.040;2023-06-22T11:51:53;24.00;57.00
61398;DHT22;47267;48.130;-2.040;2023-06-22T11:54:19;24.00;57.00
61398;DHT22;47267;48.130;-2.040;2023-06-22T11:56:44;24.00;57.00
61398;DHT22;47267;48.130;-2.040;2023-06-22T11:59:10;24.00;57.00
61398;DHT22;47267;48.130;-2.040;2023-06-22T12:01:36;24.00;57.00
61398;DHT22;47267;48.130;-2.040;2023-06-22T12:04:02;24.00;57.00
61398;DHT22;47267;48.130;-2.040;2023-06-22T12:06:31;24.00;57.00
61398;DHT22;47267;48.130;-2.040;2023-06-22T12:08:57;24.00;57.00
61398;DHT22;47267;48.130;-2.040;2023-06-22T12:11:23;24.00;57.00
61398;DHT22;47267;48.130;-2.040;2023-06-22T12:13:49;24.00;57.00
61398;DHT22;47267;48.130;-2.040;2023-06-22T12:16:14;24.00;57.00
61398;DHT22;47267;48.130;-2.040;2023-06-22T12:18:40;24.00;57.10
61398;DHT22;47267;48.130;-2.040;2023-06-22T12:21:06;24.00;57.00
61398;DHT22;47267;48.130;-2.040;2023-06-22T12:23:32;24.00;57.10
61398;DHT22;47267;48.130;-2.040;2023-06-22T12:25:58;24.00;57.10
61398;DHT22;47267;48.130;-2.040;2023-06-22T12:28:24;24.00;57.10
61398;DHT22;47267;48.130;-2.040;2023-06-22T12:30:50;24.00;57.10
61398;DHT22;47267;48.130;-2.040;2023-06-22T12:33:16;24.00;57.70
61398;DHT22;47267;48.130;-2.040;2023-06-22T12:35:42;24.00;57.10
61398;DHT22;47267;48.130;-2.040;2023-06-22T12:38:07;24.00;57.10
61398;DHT22;47267;48.130;-2.040;2023-06-22T12:40:34;24.00;57.10
61398;DHT22;47267;48.130;-2.040;2023-06-22T12:43:00;24.00;57.10
61398;DHT22;47267;48.130;-2.040;2023-06-22T12:45:27;24.00;57.10
61398;DHT22;47267;48.130;-2.040;2023-06-22T12:47:54;24.00;57.10
61398;DHT22;47267;48.130;-2.040;2023-06-22T12:50:20;24.00;57.10
61398;DHT22;47267;48.130;-2.040;2023-06-22T12:52:46;24.00;57.10
61398;DHT22;47267;48.130;-2.040;2023-06-22T12:55:11;24.00;57.10
61398;DHT22;47267;48.130;-2.040;2023-06-22T12:57:37;24.00;57.10
61398;DHT22;47267;48.130;-2.040;2023-06-22T13:00:03;24.00;57.70
61398;DHT22;47267;48.130;-2.040;2023-06-22T13:02:30;24.00;57.10
61398;DHT22;47267;48.130;-2.040;2023-06-22T13:04:56;24.00;57.10
61398;DHT22;47267;48.130;-2.040;2023-06-22T13:07:22;24.10;57.20
61398;DHT22;47267;48.130;-2.040;2023-06-22T13:09:48;24.10;57.20
61398;DHT22;47267;48.130;-2.040;2023-06-22T13:12:17;24.10;57.20
61398;DHT22;47267;48.130;-2.040;2023-06-22T13:14:42;24.00;57.10
61398;DHT22;47267;48.130;-2.040;2023-06-22T13:17:09;24.00;57.10
61398;DHT22;47267;48.130;-2.040;2023-06-22T13:19:34;24.10;57.20
61398;DHT22;47267;48.130;-2.040;2023-06-22T13:22:00;24.10;57.20
61398;DHT22;47267;48.130;-2.040;2023-06-22T13:24:26;24.00;57.10
61398;DHT22;47267;48.130;-2.040;2023-06-22T13:26:51;24.10;57.20
61398;DHT22;47267;48.130;-2.040;2023-06-22T13:29:17;24.10;57.20
61398;DHT22;47267;48.130;-2.040;2023-06-22T13:31:43;24.10;57.20
61398;DHT22;47267;48.130;-2.040;2023-06-22T13:34:08;24.10;57.10
61398;DHT22;47267;48.130;-2.040;2023-06-22T13:36:34;24.10;57.10
61398;DHT22;47267;48.130;-2.040;2023-06-22T13:39:00;24.10;57.10
61398;DHT22;47267;48.130;-2.040;2023-06-22T13:41:25;24.10;57.10
61398;DHT22;47267;48.130;-2.040;2023-06-22T13:43:51;24.10;57.10
61398;DHT22;47267;48.130;-2.040;2023-06-22T13:46:17;24.10;57.10
61398;DHT22;47267;48.130;-2.040;2023-06-22T13:48:43;24.10;57.10
61398;DHT22;47267;48.130;-2.040;2023-06-22T13:51:08;24.10;57.10
61398;DHT22;47267;48.130;-2.040;2023-06-22T13:53:34;24.10;57.10
61398;DHT22;47267;48.130;-2.040;2023-06-22T13:56:00;24.10;57.00
61398;DHT22;47267;48.130;-2.040;2023-06-22T13:58:25;24.10;57.00
61398;DHT22;47267;48.130;-2.040;2023-06-22T14:00:51;24.10;57.00
61398;DHT22;47267;48.130;-2.040;2023-06-22T14:03:17;24.10;57.00
61398;DHT22;47267;48.130;-2.040;2023-06-22T14:05:43;24.10;57.00
61398;DHT22;47267;48.130;-2.040;2023-06-22T14:08:09;24.10;57.00
61398;DHT22;47267;48.130;-2.040;2023-06-22T14:10:34;24.20;57.00
61398;DHT22;47267;48.130;-2.040;2023-06-22T14:13:00;24.10;57.00
61398;DHT22;47267;48.130;-2.040;2023-06-22T14:15:26;24.20;57.00
61398;DHT22;47267;48.130;-2.040;2023-06-22T14:17:52;24.10;56.90
61398;DHT22;47267;48.130;-2.040;2023-06-22T14:20:18;24.20;57.00
61398;DHT22;47267;48.130;-2.040;2023-06-22T14:22:44;24.20;56.90
61398;DHT22;47267;48.130;-2.040;2023-06-22T14:25:09;24.20;57.00
61398;DHT22;47267;48.130;-2.040;2023-06-22T14:27:35;24.20;56.90
61398;DHT22;47267;48.130;-2.040;2023-06-22T14:30:00;24.20;56.80
61398;DHT22;47267;48.130;-2.040;2023-06-22T14:32:28;24.20;56.80
61398;DHT22;47267;48.130;-2.040;2023-06-22T14:34:55;24.20;56.80
61398;DHT22;47267;48.130;-2.040;2023-06-22T14:37:21;24.20;56.90
61398;DHT22;47267;48.130;-2.040;2023-06-22T14:39:46;24.20;56.80
61398;DHT22;47267;48.130;-2.040;2023-06-22T14:42:12;24.20;56.80
61398;DHT22;47267;48.130;-2.040;2023-06-22T14:44:38;24.20;56.70
61398;DHT22;47267;48.130;-2.040;2023-06-22T14:47:03;24.20;56.70
61398;DHT22;47267;48.130;-2.040;2023-06-22T14:49:29;24.20;56.70
61398;DHT22;47267;48.130;-2.040;2023-06-22T14:51:55;24.20;56.70
61398;DHT22;47267;48.130;-2.040;2023-06-22T14:54:21;24.20;56.70
61398;DHT22;47267;48.130;-2.040;2023-06-22T14:56:48;24.30;56.70
61398;DHT22;47267;48.130;-2.040;2023-06-22T14:59:13;24.20;56.70
61398;DHT22;47267;48.130;-2.040;2023-06-22T15:01:39;24.30;56.70
61398;DHT22;47267;48.130;-2.040;2023-06-22T15:04:05;24.30;56.70
61398;DHT22;47267;48.130;-2.040;2023-06-22T15:06:31;24.30;56.60
61398;DHT22;47267;48.130;-2.040;2023-06-22T15:08:56;24.30;56.60
61398;DHT22;47267;48.130;-2.040;2023-06-22T15:11:22;24.30;56.60
61398;DHT22;47267;48.130;-2.040;2023-06-22T15:13:48;24.30;56.50
61398;DHT22;47267;48.130;-2.040;2023-06-22T15:16:13;24.30;56.50
61398;DHT22;47267;48.130;-2.040;2023-06-22T15:18:39;24.30;56.50
61398;DHT22;47267;48.130;-2.040;2023-06-22T15:21:06;24.30;56.50